Time;durP1;ratioP1;P1;durP2;ratioP2;P2;SDS_P1;SDS_P2;PMS_P1;PMS_P2;Temp;Humidity;BMP_temperature;BMP_pressure;BME280_temperature;BME280_humidity;BME280_pressure;Samples;Min_cycle;Max_cycle;Signal;HPM_P1;HPM_P2
2022/03/22 00:01:25;;;;;;;21.20;15.65;;;10.60;71.20;;;;;;5030452;28;20025;-66
2022/03/22 00:03:51;;;;;;;22.25;16.70;;;10.60;71.30;;;;;;5030710;28;20100;-66
2022/03/22 00:06:20;;;;;;;23.42;15.57;;;10.60;71.30;;;;;;5030885;28;20025;-66
2022/03/22 00:08:47;;;;;;;25.50;16.83;;;10.60;71.30;;;;;;5030750;28;20489;-67
2022/03/22 00:11:13;;;;;;;22.63;15.98;;;10.60;71.30;;;;;;5030768;28;20018;-67
2022/03/22 00:13:42;;;;;;;19.88;15.40;;;10.60;71.40;;;;;;5030575;28;20411;-66
2022/03/22 00:16:08;;;;;;;22.30;16.52;;;10.60;71.50;;;;;;5030254;28;20029;-66
2022/03/22 00:18:35;;;;;;;24.65;16.38;;;10.60;71.50;;;;;;5030143;28;20173;-66
2022/03/22 00:21:00;;;;;;;22.02;15.43;;;10.60;71.60;;;;;;5030451;28;20041;-66
2022/03/22 00:23:26;;;;;;;22.13;16.55;;;10.60;71.60;;;;;;5030402;28;20026;-66
2022/03/22 00:25:52;;;;;;;21.10;15.35;;;10.50;71.60;;;;;;5030066;28;20018;-66
2022/03/22 00:28:17;;;;;;;21.25;14.95;;;10.50;71.70;;;;;;5029955;28;20433;-66
2022/03/22 00:30:44;;;;;;;21.55;14.93;;;10.50;71.60;;;;;;5008963;28;20021;-67
2022/03/22 00:33:10;;;;;;;26.02;19.02;;;10.50;71.50;;;;;;5029989;28;20474;-66
2022/03/22 00:35:37;;;;;;;27.60;19.70;;;10.50;72.10;;;;;;5029711;28;20041;-66
2022/03/22 00:38:08;;;;;;;34.70;23.58;;;10.50;72.70;;;;;;5030092;28;20064;-66
2022/03/22 00:40:34;;;;;;;33.78;21.63;;;10.50;73.50;;;;;;5029743;28;20025;-66
2022/03/22 00:43:00;;;;;;;27.35;19.55;;;10.50;73.90;;;;;;5029782;28;20028;-66
2022/03/22 00:45:28;;;;;;;29.00;20.13;;;10.60;73.60;;;;;;5009302;28;20026;-66
2022/03/22 00:47:54;;;;;;;28.15;21.10;;;10.60;73.70;;;;;;5029653;28;20484;-67
2022/03/22 00:50:23;;;;;;;27.58;20.25;;;10.60;73.60;;;;;;5029594;28;20564;-67
2022/03/22 00:52:49;;;;;;;32.10;21.00;;;10.60;73.50;;;;;;5029904;28;20473;-66
2022/03/22 00:55:15;;;;;;;27.27;19.95;;;10.60;73.70;;;;;;5029340;28;20025;-66
2022/03/22 00:57:42;;;;;;;29.38;20.38;;;10.60;73.60;;;;;;5029363;28;20057;-66
2022/03/22 01:00:13;;;;;;;29.10;19.42;;;10.60;73.70;;;;;;5029954;28;20163;-66
2022/03/22 01:02:41;;;;;;;31.48;20.10;;;10.60;73.50;;;;;;5029332;28;20515;-66
2022/03/22 01:05:13;;;;;;;27.25;20.20;;;10.60;73.70;;;;;;5029520;28;20026;-66
2022/03/22 01:07:43;;;;;;;28.80;19.25;;;10.60;73.70;;;;;;5025883;28;20025;-67
2022/03/22 01:10:10;;;;;;;29.38;21.38;;;10.60;73.90;;;;;;5029472;28;20033;-66
2022/03/22 01:12:38;;;;;;;26.90;19.65;;;10.60;74.10;;;;;;5029283;28;20497;-65
2022/03/22 01:15:06;;;;;;;28.27;19.75;;;10.60;74.20;;;;;;5029185;28;20040;-66
2022/03/22 01:17:33;;;;;;;29.85;20.65;;;10.60;74.20;;;;;;5029027;28;20029;-66
2022/03/22 01:20:00;;;;;;;33.97;20.90;;;10.60;74.30;;;;;;5029243;28;20512;-66
2022/03/22 01:22:26;;;;;;;27.98;20.38;;;10.60;74.30;;;;;;5029472;28;20032;-66
2022/03/22 01:24:52;;;;;;;29.33;20.35;;;10.60;74.50;;;;;;5028991;28;20024;-66
2022/03/22 01:27:20;;;;;;;31.35;21.38;;;10.50;74.70;;;;;;5028860;28;20029;-67
2022/03/22 01:29:46;;;;;;;33.30;21.40;;;10.50;74.80;;;;;;5029033;28;20029;-66
2022/03/22 01:32:12;;;;;;;35.45;21.45;;;10.50;74.80;;;;;;5028565;28;20477;-66
2022/03/22 01:34:38;;;;;;;32.25;21.60;;;10.50;75.00;;;;;;5028633;28;20049;-66
2022/03/22 01:37:04;;;;;;;29.92;20.73;;;10.50;75.20;;;;;;5028547;28;20033;-66
2022/03/22 01:39:29;;;;;;;31.77;21.73;;;10.40;75.30;;;;;;5028955;28;20021;-58
2022/03/22 01:41:55;;;;;;;30.95;21.33;;;10.40;75.50;;;;;;5027707;28;20036;-58
2022/03/22 01:44:21;;;;;;;30.48;21.45;;;10.40;75.60;;;;;;5028616;28;20045;-60
2022/03/22 01:46:49;;;;;;;30.42;21.13;;;10.30;75.70;;;;;;5028663;28;20029;-58
2022/03/22 01:49:15;;;;;;;29.40;22.20;;;10.30;75.90;;;;;;5028541;28;20563;-58
2022/03/22 01:51:42;;;;;;;30.85;21.58;;;10.30;76.20;;;;;;5028650;28;20033;-58
2022/03/22 01:54:08;;;;;;;31.15;23.02;;;10.20;76.30;;;;;;5028524;28;20485;-58
2022/03/22 01:56:36;;;;;;;30.83;22.65;;;10.20;76.50;;;;;;5027980;28;20515;-58
2022/03/22 01:59:01;;;;;;;33.00;22.90;;;10.10;76.70;;;;;;5028448;28;20029;-58
2022/03/22 02:06:57;;;;;;;34.97;23.27;;;10.00;77.10;;;;;;5028249;28;20031;-58
2022/03/22 02:09:23;;;;;;;32.95;22.73;;;9.90;77.40;;;;;;5028238;28;20386;-58
2022/03/22 02:11:48;;;;;;;32.13;21.83;;;9.90;77.50;;;;;;5028216;28;20029;-58
2022/03/22 02:14:14;;;;;;;31.70;22.25;;;9.90;77.60;;;;;;5027977;28;20148;-58
2022/03/22 02:16:39;;;;;;;32.28;22.25;;;9.90;77.70;;;;;;5027816;28;20029;-58
2022/03/22 02:19:09;;;;;;;30.73;22.52;;;9.90;77.70;;;;;;5028188;28;20028;-58
2022/03/22 02:21:39;;;;;;;32.20;22.65;;;9.90;77.70;;;;;;5028067;28;20173;-58
2022/03/22 02:24:05;;;;;;;34.10;22.13;;;9.80;77.60;;;;;;5028148;28;20378;-58
2022/03/22 02:26:31;;;;;;;34.72;24.23;;;9.80;77.80;;;;;;5010180;28;20028;-58
2022/03/22 02:28:56;;;;;;;30.42;21.85;;;9.80;77.90;;;;;;5027745;28;20029;-59
2022/03/22 02:31:23;;;;;;;31.17;21.55;;;9.70;77.90;;;;;;5010008;28;20017;-59
2022/03/22 02:33:49;;;;;;;33.80;23.52;;;9.70;78.00;;;;;;5028139;28;20021;-59
2022/03/22 02:36:15;;;;;;;30.05;22.85;;;9.70;78.10;;;;;;5027306;28;20033;-59
2022/03/22 02:38:41;;;;;;;30.63;21.95;;;9.60;78.20;;;;;;5027950;28;20538;-58
2022/03/22 02:41:07;;;;;;;33.17;22.92;;;9.60;78.40;;;;;;5027955;28;20462;-59
2022/03/22 02:43:33;;;;;;;30.23;22.67;;;9.60;78.60;;;;;;5027746;28;20029;-59
2022/03/22 02:45:59;;;;;;;30.85;22.63;;;9.60;78.70;;;;;;5029007;28;20055;-59
2022/03/22 02:48:24;;;;;;;32.42;22.65;;;9.50;78.90;;;;;;5010013;28;20025;-59
2022/03/22 02:50:51;;;;;;;31.92;21.85;;;9.50;79.10;;;;;;5027870;28;20056;-59
2022/03/22 02:53:16;;;;;;;28.48;21.65;;;9.50;79.10;;;;;;5028887;28;20029;-59
2022/03/22 02:55:42;;;;;;;33.00;22.08;;;9.50;79.30;;;;;;5031683;28;20026;-59
2022/03/22 02:58:07;;;;;;;36.85;22.85;;;9.40;79.20;;;;;;5031655;28;20049;-59
2022/03/22 03:00:34;;;;;;;33.50;24.23;;;9.40;79.20;;;;;;5031274;28;20021;-59
2022/03/22 03:03:00;;;;;;;32.72;23.17;;;9.40;79.30;;;;;;5031721;28;20473;-59
2022/03/22 03:05:26;;;;;;;29.58;21.40;;;9.40;79.40;;;;;;5031459;28;20026;-58
2022/03/22 03:07:52;;;;;;;32.13;22.08;;;9.30;79.20;;;;;;5011378;28;20028;-59
2022/03/22 03:10:18;;;;;;;29.40;21.70;;;9.30;79.20;;;;;;5028963;28;20028;-59
2022/03/22 03:12:44;;;;;;;27.33;19.88;;;9.30;79.20;;;;;;5031486;28;20030;-59
2022/03/22 03:15:11;;;;;;;26.55;19.63;;;9.30;79.20;;;;;;5031255;28;20107;-59
2022/03/22 03:17:37;;;;;;;31.23;20.80;;;9.40;79.20;;;;;;5031293;28;20026;-59
2022/03/22 03:20:05;;;;;;;28.85;19.77;;;9.30;79.10;;;;;;5031913;28;20018;-59
2022/03/22 03:22:31;;;;;;;28.88;20.65;;;9.30;79.10;;;;;;5031297;28;20022;-59
2022/03/22 03:24:56;;;;;;;26.65;19.52;;;9.30;79.00;;;;;;5013353;28;20032;-59
2022/03/22 03:27:22;;;;;;;26.40;18.55;;;9.30;79.00;;;;;;5031063;28;20037;-58
2022/03/22 03:29:48;;;;;;;31.42;21.77;;;9.30;78.90;;;;;;5031220;28;20029;-59
2022/03/22 03:32:14;;;;;;;23.25;18.13;;;9.30;79.00;;;;;;5030986;28;20029;-59
2022/03/22 03:34:40;;;;;;;24.30;17.50;;;9.30;79.00;;;;;;5030886;28;20523;-58
2022/03/22 03:37:06;;;;;;;20.73;15.13;;;9.30;78.80;;;;;;5013196;28;20374;-59
2022/03/22 03:39:32;;;;;;;23.92;14.43;;;9.30;79.20;;;;;;5031395;28;20073;-59
2022/03/22 03:41:58;;;;;;;18.63;14.30;;;9.30;78.30;;;;;;4994157;28;20480;-59
2022/03/22 03:47:22;;;;;;;16.25;12.50;;;9.40;78.00;;;;;;5028627;28;20382;-59
2022/03/22 03:49:51;;;;;;;16.98;12.80;;;9.30;77.90;;;;;;5030839;28;20563;-59
2022/03/22 03:52:25;;;;;;;19.20;13.65;;;9.30;77.70;;;;;;5028982;28;20037;-59
2022/03/22 03:54:52;;;;;;;16.10;12.45;;;9.30;77.60;;;;;;5031888;28;20640;-59
2022/03/22 03:57:18;;;;;;;18.02;12.63;;;9.30;77.60;;;;;;5013633;28;20132;-59
2022/03/22 03:59:44;;;;;;;16.50;12.45;;;9.20;77.50;;;;;;5030853;28;20021;-59
2022/03/22 04:02:10;;;;;;;16.02;12.43;;;9.20;77.40;;;;;;5030617;28;20034;-59
2022/03/22 04:04:37;;;;;;;16.80;13.07;;;9.20;77.40;;;;;;5029440;28;20028;-59
2022/03/22 04:07:04;;;;;;;17.48;12.68;;;9.20;77.30;;;;;;5012447;28;20408;-59
2022/03/22 04:09:29;;;;;;;18.88;13.45;;;9.20;77.30;;;;;;5030513;28;20442;-58
2022/03/22 04:11:55;;;;;;;20.13;12.50;;;9.10;77.20;;;;;;5030307;28;20025;-59
2022/03/22 04:14:20;;;;;;;18.40;12.90;;;9.10;77.20;;;;;;4996060;28;20452;-59
2022/03/22 04:16:46;;;;;;;16.48;12.63;;;9.10;77.20;;;;;;5030669;28;20036;-59
2022/03/22 04:19:12;;;;;;;17.83;12.90;;;9.10;77.20;;;;;;5030206;28;20424;-59
2022/03/22 04:21:39;;;;;;;16.90;12.07;;;9.00;77.10;;;;;;5028314;28;20034;-59
2022/03/22 04:24:06;;;;;;;17.67;12.35;;;9.00;77.00;;;;;;5030223;28;20087;-59
2022/03/22 04:26:37;;;;;;;19.13;12.88;;;9.00;77.00;;;;;;5029876;28;20485;-59
2022/03/22 04:34:33;;;;;;;28.42;19.95;;;8.70;78.30;;;;;;5030359;28;20044;-59
2022/03/22 04:37:02;;;;;;;26.98;19.75;;;8.50;79.00;;;;;;5029953;28;20041;-59
2022/03/22 04:39:30;;;;;;;29.13;21.23;;;8.50;79.50;;;;;;5029787;28;20087;-59
2022/03/22 04:41:57;;;;;;;28.10;21.27;;;8.40;79.70;;;;;;5029862;28;20036;-59
2022/03/22 04:44:23;;;;;;;33.25;22.25;;;8.30;80.20;;;;;;5029694;28;20063;-59
2022/03/22 04:46:49;;;;;;;30.55;22.40;;;8.20;80.80;;;;;;5009294;28;20095;-58
2022/03/22 04:49:14;;;;;;;33.67;23.27;;;8.20;81.40;;;;;;5029828;28;20646;-59
2022/03/22 04:57:08;;;;;;;31.85;23.40;;;8.00;82.80;;;;;;5029601;28;20057;-58
2022/03/22 04:59:34;;;;;;;32.70;21.67;;;7.90;83.20;;;;;;5029289;28;20030;-59
2022/03/22 05:01:59;;;;;;;33.88;23.55;;;7.90;83.50;;;;;;5029621;28;20461;-59
2022/03/22 05:04:25;;;;;;;37.42;23.92;;;7.80;83.70;;;;;;5029321;28;20563;-59
2022/03/22 05:06:51;;;;;;;32.83;24.70;;;7.80;83.90;;;;;;5029487;28;20571;-59
2022/03/22 05:09:16;;;;;;;35.20;23.42;;;7.80;84.00;;;;;;5029372;28;20034;-59
2022/03/22 05:11:42;;;;;;;35.15;24.05;;;7.90;84.10;;;;;;5029119;28;20030;-59
2022/03/22 05:14:08;;;;;;;30.38;23.13;;;7.90;84.10;;;;;;5029188;28;20029;-59
2022/03/22 05:16:35;;;;;;;32.65;23.30;;;7.90;84.00;;;;;;5028677;28;20029;-59
2022/03/22 05:19:01;;;;;;;33.97;23.10;;;7.90;83.80;;;;;;5029346;28;20023;-58
2022/03/22 05:21:27;;;;;;;35.88;24.05;;;8.00;83.60;;;;;;5008637;28;20021;-59
2022/03/22 05:23:54;;;;;;;32.83;24.25;;;8.00;83.50;;;;;;5029168;28;20021;-59
2022/03/22 05:26:20;;;;;;;32.90;23.60;;;8.00;83.30;;;;;;5028746;28;20485;-59
2022/03/22 05:28:45;;;;;;;34.95;23.42;;;8.00;83.30;;;;;;5029055;28;20083;-59
2022/03/22 05:31:14;;;;;;;34.00;23.20;;;8.00;83.20;;;;;;5029043;28;20041;-59
2022/03/22 05:33:40;;;;;;;37.00;25.05;;;8.00;83.10;;;;;;5008475;28;20507;-59
2022/03/22 05:36:06;;;;;;;36.60;24.30;;;8.00;83.10;;;;;;5028735;28;20041;-59
2022/03/22 05:38:32;;;;;;;35.50;24.30;;;8.00;83.20;;;;;;5028767;28;20024;-59
2022/03/22 05:40:58;;;;;;;34.35;24.92;;;8.00;83.20;;;;;;5028491;28;20022;-58
2022/03/22 05:43:27;;;;;;;35.72;24.05;;;8.00;83.20;;;;;;5028672;28;20105;-58
2022/03/22 05:45:52;;;;;;;34.20;24.13;;;8.00;83.20;;;;;;5028737;28;20477;-59
2022/03/22 05:48:19;;;;;;;32.00;23.80;;;8.00;83.20;;;;;;5028453;28;20083;-59
2022/03/22 05:50:45;;;;;;;36.17;24.17;;;8.00;83.20;;;;;;5028763;28;20465;-59
2022/03/22 05:53:12;;;;;;;35.00;23.83;;;8.00;83.20;;;;;;5028589;28;20109;-58
2022/03/22 05:55:37;;;;;;;38.28;24.88;;;8.00;83.20;;;;;;5028346;28;20547;-58
2022/03/22 05:58:03;;;;;;;36.33;25.58;;;8.00;83.00;;;;;;5028204;28;20045;-58
2022/03/22 06:00:29;;;;;;;35.60;24.60;;;7.90;83.00;;;;;;5028306;28;20030;-58
2022/03/22 06:02:55;;;;;;;34.42;24.63;;;7.90;82.90;;;;;;5028355;28;20028;-58
2022/03/22 06:05:21;;;;;;;34.65;24.17;;;7.90;82.90;;;;;;5028668;28;20021;-58
2022/03/22 06:07:47;;;;;;;34.30;23.52;;;8.00;82.80;;;;;;5028348;28;20030;-58
2022/03/22 06:10:13;;;;;;;35.15;24.70;;;8.00;82.70;;;;;;5028354;28;20044;-58
2022/03/22 06:12:45;;;;;;;33.80;23.90;;;8.00;82.60;;;;;;5028548;28;20030;-58
2022/03/22 06:15:16;;;;;;;36.22;24.75;;;8.00;82.40;;;;;;5028195;28;20509;-58
2022/03/22 06:17:47;;;;;;;33.88;24.70;;;8.10;82.30;;;;;;5028029;28;20061;-58
2022/03/22 06:20:14;;;;;;;36.50;24.35;;;8.00;82.20;;;;;;5028310;28;20013;-58
2022/03/22 06:22:41;;;;;;;35.05;24.42;;;8.00;82.10;;;;;;5027921;28;20034;-58
2022/03/22 06:25:07;;;;;;;38.47;25.00;;;8.10;82.00;;;;;;5028126;28;20030;-58
2022/03/22 06:27:35;;;;;;;32.95;23.33;;;8.10;81.90;;;;;;5027564;28;20100;-58
2022/03/22 06:30:04;;;;;;;34.35;23.75;;;8.10;81.70;;;;;;5028099;28;20021;-58
2022/03/22 06:32:30;;;;;;;38.47;25.60;;;8.10;81.60;;;;;;5028088;28;20071;-58
2022/03/22 06:34:55;;;;;;;34.95;24.95;;;8.20;81.50;;;;;;5027870;28;20033;-58
2022/03/22 06:37:21;;;;;;;34.97;25.00;;;8.20;81.30;;;;;;5027764;28;20040;-58
2022/03/22 06:39:47;;;;;;;33.60;25.33;;;8.20;81.20;;;;;;5028065;28;20079;-58
2022/03/22 06:42:13;;;;;;;37.83;23.85;;;8.20;81.20;;;;;;5027959;28;20028;-58
2022/03/22 06:44:40;;;;;;;35.20;23.67;;;8.30;81.00;;;;;;5027937;28;20563;-58
2022/03/22 06:47:06;;;;;;;33.15;23.50;;;8.30;80.70;;;;;;5027412;28;20108;-58
2022/03/22 06:49:31;;;;;;;33.20;23.90;;;8.30;80.60;;;;;;5027639;28;20034;-58
2022/03/22 06:51:57;;;;;;;33.00;23.67;;;8.40;80.60;;;;;;5026233;28;20037;-58
2022/03/22 06:54:23;;;;;;;39.28;26.02;;;8.40;80.50;;;;;;5028983;28;20397;-58
2022/03/22 06:56:48;;;;;;;32.33;22.58;;;8.50;80.10;;;;;;5031505;28;20042;-59
2022/03/22 06:59:14;;;;;;;35.65;22.58;;;8.50;80.00;;;;;;5013779;28;20029;-59
2022/03/22 07:01:40;;;;;;;33.20;23.60;;;8.60;79.70;;;;;;5031694;28;20033;-58
2022/03/22 07:04:05;;;;;;;35.65;24.10;;;8.60;79.40;;;;;;5031622;28;20021;-58
2022/03/22 07:06:31;;;;;;;34.58;23.80;;;8.70;78.80;;;;;;4998671;28;20026;-58
2022/03/22 07:08:56;;;;;;;34.38;23.20;;;8.80;78.80;;;;;;5021870;28;20018;-58
2022/03/22 07:14:06;;;;;;;31.45;23.10;;;8.90;78.10;;;;;;5028156;28;20037;-58
2022/03/22 07:16:31;;;;;;;33.15;23.88;;;8.90;77.50;;;;;;5027738;28;20034;-58
2022/03/22 07:18:57;;;;;;;37.80;24.63;;;9.00;77.20;;;;;;5010438;28;20036;-59
2022/03/22 07:21:22;;;;;;;34.35;24.55;;;9.00;76.80;;;;;;5028868;28;20025;-58
2022/03/22 07:23:48;;;;;;;34.85;23.45;;;9.10;76.40;;;;;;5030879;28;20044;-58
2022/03/22 07:26:14;;;;;;;32.33;23.90;;;9.20;76.30;;;;;;5029392;28;20075;-58
2022/03/22 07:28:40;;;;;;;35.50;23.27;;;9.20;75.70;;;;;;5031033;28;20025;-58
2022/03/22 07:31:06;;;;;;;34.95;22.80;;;9.30;75.30;;;;;;5030764;28;20028;-58
2022/03/22 07:33:31;;;;;;;35.78;24.17;;;9.40;75.10;;;;;;5030992;28;20026;-58
2022/03/22 07:35:57;;;;;;;35.85;23.88;;;9.50;75.00;;;;;;5031436;28;20469;-58
2022/03/22 07:38:22;;;;;;;33.95;23.23;;;9.50;74.70;;;;;;5030872;28;20029;-59
2022/03/22 07:40:48;;;;;;;31.98;22.88;;;9.60;74.20;;;;;;5033099;28;20072;-59
2022/03/22 07:43:13;;;;;;;36.60;24.25;;;9.70;73.30;;;;;;5035171;28;20037;-58
2022/03/22 07:45:39;;;;;;;32.72;23.65;;;9.80;74.00;;;;;;5034700;28;20041;-58
2022/03/22 07:48:05;;;;;;;34.38;23.40;;;9.80;72.70;;;;;;5034789;28;20029;-58
2022/03/22 07:53:14;;;;;;;32.22;23.10;;;10.00;72.70;;;;;;5034672;28;20035;-58
2022/03/22 07:55:42;;;;;;;35.38;23.23;;;10.00;71.90;;;;;;5034450;28;20112;-58
2022/03/22 07:58:08;;;;;;;32.58;23.08;;;10.20;72.10;;;;;;5034236;28;20049;-58
2022/03/22 08:00:37;;;;;;;31.63;22.70;;;10.20;71.70;;;;;;5019920;28;20029;-59
2022/03/22 08:03:04;;;;;;;33.55;22.92;;;10.30;71.40;;;;;;5033015;28;20120;-58
2022/03/22 08:05:32;;;;;;;31.08;22.90;;;10.40;71.10;;;;;;5030681;28;20029;-58
2022/03/22 08:07:59;;;;;;;31.83;22.30;;;10.50;70.60;;;;;;5033842;28;20025;-59
2022/03/22 08:10:26;;;;;;;30.13;22.05;;;10.60;70.80;;;;;;5033747;28;20473;-58
2022/03/22 08:12:52;;;;;;;31.17;22.48;;;10.60;70.00;;;;;;5033532;28;20044;-59
2022/03/22 08:15:17;;;;;;;35.35;24.58;;;10.70;69.80;;;;;;5033275;28;20134;-58
2022/03/22 08:17:43;;;;;;;33.28;22.77;;;10.80;69.30;;;;;;5033319;28;20060;-58
2022/03/22 08:20:11;;;;;;;29.92;21.95;;;10.80;69.70;;;;;;5015866;28;20121;-58
2022/03/22 08:22:51;;;;;;;30.80;23.05;;;10.90;68.90;;;;;;5031931;28;20036;-58
2022/03/22 08:25:29;;;;;;;33.67;22.25;;;11.00;69.10;;;;;;5033241;28;20017;-58
2022/03/22 08:27:57;;;;;;;33.35;23.63;;;11.10;68.10;;;;;;5033439;28;20075;-58
2022/03/22 08:30:23;;;;;;;34.22;23.20;;;11.10;68.00;;;;;;5027471;28;20025;-58
2022/03/22 08:32:50;;;;;;;38.90;23.63;;;11.20;67.80;;;;;;5014116;28;20026;-58
2022/03/22 08:35:20;;;;;;;35.10;24.17;;;11.30;68.00;;;;;;5031851;28;20032;-58
2022/03/22 08:37:46;;;;;;;33.10;22.30;;;11.40;68.20;;;;;;5033194;28;20025;-58
2022/03/22 08:40:16;;;;;;;30.55;21.85;;;11.50;67.00;;;;;;5032047;28;20029;-58
2022/03/22 08:42:45;;;;;;;29.33;20.73;;;11.60;66.90;;;;;;5031283;28;20021;-58
2022/03/22 08:45:19;;;;;;;27.75;20.20;;;11.70;67.10;;;;;;5032507;28;20017;-59
2022/03/22 08:47:46;;;;;;;32.60;23.45;;;11.90;66.80;;;;;;5029611;28;20034;-58
2022/03/22 08:50:14;;;;;;;34.65;24.85;;;11.90;65.80;;;;;;5030021;28;20030;-58
2022/03/22 08:52:41;;;;;;;34.67;23.95;;;12.00;64.90;;;;;;5032396;28;20421;-59
2022/03/22 08:55:08;;;;;;;33.15;21.88;;;12.10;64.90;;;;;;5032680;28;20025;-58
2022/03/22 08:57:35;;;;;;;29.80;22.25;;;12.20;65.20;;;;;;5032254;28;20041;-59
2022/03/22 09:00:05;;;;;;;31.63;22.05;;;12.30;64.30;;;;;;5032538;28;20139;-59
2022/03/22 09:02:31;;;;;;;29.63;22.13;;;12.40;64.20;;;;;;5032788;28;20048;-59
2022/03/22 09:07:41;;;;;;;36.22;23.90;;;12.70;63.70;;;;;;5018952;28;20032;-58
2022/03/22 09:10:08;;;;;;;27.00;20.95;;;12.80;63.10;;;;;;5032651;28;20037;-58
2022/03/22 09:12:33;;;;;;;29.23;21.23;;;12.90;63.70;;;;;;5014612;28;20119;-58
2022/03/22 09:14:59;;;;;;;31.38;22.17;;;13.00;63.50;;;;;;5032539;28;20104;-59
2022/03/22 09:17:24;;;;;;;30.10;22.15;;;13.20;63.40;;;;;;5030695;28;20082;-59
2022/03/22 09:19:49;;;;;;;29.77;22.98;;;13.30;62.20;;;;;;5031390;28;20393;-58
2022/03/22 09:22:15;;;;;;;32.35;21.27;;;13.50;62.00;;;;;;5015182;28;20025;-59
2022/03/22 09:24:40;;;;;;;36.28;24.23;;;13.60;62.10;;;;;;5032795;28;20531;-59
2022/03/22 09:27:06;;;;;;;32.40;22.30;;;13.70;60.90;;;;;;5032900;28;20540;-59
2022/03/22 09:29:32;;;;;;;31.73;23.30;;;13.90;60.90;;;;;;5032649;28;20381;-59
2022/03/22 09:31:57;;;;;;;32.88;24.13;;;14.00;61.00;;;;;;5032102;28;20111;-58
2022/03/22 09:34:25;;;;;;;31.60;22.25;;;14.20;60.80;;;;;;5032518;28;20037;-59
2022/03/22 09:36:51;;;;;;;29.95;21.67;;;14.30;60.30;;;;;;5032733;28;20496;-59
2022/03/22 09:39:19;;;;;;;31.77;23.15;;;14.40;59.40;;;;;;5032610;28;20021;-59
2022/03/22 09:41:46;;;;;;;31.70;23.60;;;14.50;58.80;;;;;;5032520;28;20040;-59
2022/03/22 09:44:16;;;;;;;28.50;21.85;;;14.70;59.70;;;;;;5032634;28;20021;-59
2022/03/22 09:46:45;;;;;;;31.25;22.63;;;14.80;59.30;;;;;;5032294;28;20037;-59
2022/03/22 09:49:11;;;;;;;;;;;15.00;59.00;;;;;;5032914;28;20057;-59
2022/03/22 09:51:47;;;;;;;27.42;20.40;;;15.10;58.30;;;;;;5014624;28;19948;-59
2022/03/22 09:54:17;;;;;;;31.02;22.33;;;15.20;58.00;;;;;;5032477;28;20022;-59
2022/03/22 09:56:45;;;;;;;28.60;20.65;;;15.30;56.90;;;;;;5032037;28;20444;-59
2022/03/22 09:59:11;;;;;;;24.67;18.55;;;15.50;57.00;;;;;;5014445;28;20433;-59
2022/03/22 10:01:37;;;;;;;24.85;18.30;;;15.70;57.50;;;;;;5032222;28;20100;-58
2022/03/22 10:04:06;;;;;;;27.30;19.52;;;16.00;57.60;;;;;;5031564;28;20104;-59
2022/03/22 10:06:32;;;;;;;32.97;21.88;;;16.20;55.50;;;;;;5032312;28;20033;-59
2022/03/22 10:08:59;;;;;;;30.80;22.38;;;16.40;54.80;;;;;;5032141;28;20091;-59
2022/03/22 10:11:54;;;;;;;35.63;21.35;;;16.50;54.10;;;;;;5032001;28;20100;-59
2022/03/22 10:14:19;;;;;;;28.55;20.45;;;16.70;54.20;;;;;;5011200;28;20037;-59
2022/03/22 10:16:51;;;;;;;26.40;20.38;;;16.90;53.40;;;;;;5031938;28;20079;-59
2022/03/22 10:19:26;;;;;;;30.05;21.75;;;17.00;52.30;;;;;;5014546;28;20401;-59
2022/03/22 10:21:53;;;;;;;27.83;20.10;;;17.10;51.60;;;;;;5032062;28;20076;-59
2022/03/22 10:24:19;;;;;;;30.55;21.15;;;17.30;51.50;;;;;;5014140;28;20022;-59
2022/03/22 10:26:47;;;;;;;34.05;23.52;;;17.50;51.80;;;;;;5031923;28;20060;-59
2022/03/22 10:29:14;;;;;;;32.70;22.00;;;17.60;49.00;;;;;;5031909;28;20071;-59
2022/03/22 10:31:40;;;;;;;35.85;24.15;;;17.70;48.60;;;;;;5031902;28;20087;-59
2022/03/22 10:34:08;;;;;;;36.28;26.08;;;17.80;48.30;;;;;;5030856;28;20033;-59
2022/03/22 10:36:38;;;;;;;34.35;25.02;;;17.90;48.20;;;;;;5030404;28;20095;-59
2022/03/22 10:39:09;;;;;;;33.65;24.55;;;18.10;48.40;;;;;;5030021;28;20117;-59
2022/03/22 10:41:43;;;;;;;29.63;22.02;;;18.20;48.60;;;;;;5029610;28;20026;-59
2022/03/22 10:44:13;;;;;;;31.77;22.42;;;18.50;47.10;;;;;;5030777;28;20018;-59
2022/03/22 10:46:38;;;;;;;28.20;21.25;;;18.80;46.70;;;;;;5030216;28;20021;-59
2022/03/22 10:49:09;;;;;;;26.83;20.08;;;19.00;46.20;;;;;;5030005;28;20492;-59
2022/03/22 10:51:56;;;;;;;26.23;20.23;;;19.50;46.50;;;;;;5030156;28;20396;-59
2022/03/22 10:54:22;;;;;;;32.72;22.63;;;20.10;45.10;;;;;;5029903;28;20033;-59
2022/03/22 10:56:51;;;;;;;26.48;20.33;;;20.40;43.80;;;;;;5030059;28;20045;-60
2022/03/22 10:59:21;;;;;;;26.92;22.73;;;21.30;44.30;;;;;;5029979;28;20021;-60
2022/03/22 11:01:47;;;;;;;;;;;23.10;40.70;;;;;;5031850;28;20382;-60
2022/03/22 11:04:19;;;;;;;28.05;20.27;;;24.70;39.10;;;;;;5031560;28;19912;-60
2022/03/22 11:06:48;;;;;;;22.08;17.98;;;26.00;37.50;;;;;;5031671;28;20109;-60
2022/03/22 11:09:18;;;;;;;18.42;14.90;;;27.60;36.70;;;;;;5031532;28;20053;-60
2022/03/22 11:11:44;;;;;;;16.00;12.75;;;29.70;36.60;;;;;;5027772;28;20026;-60
2022/03/22 11:14:14;;;;;;;25.50;19.50;;;31.90;35.80;;;;;;5031753;28;20026;-60
2022/03/22 11:16:40;;;;;;;22.58;16.45;;;32.70;30.00;;;;;;5032475;28;20121;-60
2022/03/22 11:19:08;;;;;;;23.15;18.98;;;33.30;31.20;;;;;;5033166;28;20108;-60
2022/03/22 11:21:34;;;;;;;23.27;19.58;;;34.00;29.00;;;;;;5033478;28;20017;-61
2022/03/22 11:24:07;;;;;;;21.75;19.50;;;33.50;28.70;;;;;;5033993;28;20025;-60
2022/03/22 11:26:47;;;;;;;19.15;16.90;;;33.90;28.60;;;;;;5034161;28;20021;-60
2022/03/22 11:29:15;;;;;;;19.70;16.60;;;34.70;29.10;;;;;;5033712;28;20496;-61
2022/03/22 11:31:42;;;;;;;16.58;14.93;;;34.80;28.40;;;;;;5034539;28;20041;-60
2022/03/22 11:34:09;;;;;;;17.60;15.80;;;36.00;28.80;;;;;;5034534;28;20055;-61
2022/03/22 11:36:44;;;;;;;20.77;18.40;;;36.80;28.30;;;;;;5032895;28;20033;-61
2022/03/22 11:39:16;;;;;;;20.63;18.55;;;36.50;26.90;;;;;;5033299;28;20105;-61
2022/03/22 11:44:39;;;;;;;18.75;16.73;;;36.70;27.60;;;;;;5032945;28;20113;-60
2022/03/22 11:47:07;;;;;;;20.90;18.70;;;37.10;27.20;;;;;;5033092;28;20072;-61
2022/03/22 11:49:50;;;;;;;23.20;20.58;;;37.40;26.70;;;;;;5032373;28;20384;-61
2022/03/22 11:52:17;;;;;;;22.73;20.35;;;36.10;26.10;;;;;;5032460;28;20017;-60
2022/03/22 11:54:54;;;;;;;22.13;19.80;;;35.40;26.50;;;;;;5032914;28;20022;-61
2022/03/22 11:57:19;;;;;;;16.80;15.07;;;35.10;27.30;;;;;;5033792;28;20105;-61
2022/03/22 11:59:47;;;;;;;13.30;11.95;;;36.60;27.90;;;;;;5033685;28;20546;-61
2022/03/22 12:02:15;;;;;;;15.18;13.63;;;39.00;27.60;;;;;;5033893;28;20021;-61
2022/03/22 12:04:53;;;;;;;16.52;14.77;;;40.30;26.80;;;;;;5033963;28;20033;-60
2022/03/22 12:07:31;;;;;;;14.57;13.02;;;41.90;26.60;;;;;;5033941;28;20477;-60
2022/03/22 12:10:07;;;;;;;17.25;15.45;;;43.30;26.70;;;;;;5032270;28;20080;-61
2022/03/22 12:12:34;;;;;;;14.68;13.23;;;44.20;25.80;;;;;;5031977;28;20071;-61
2022/03/22 12:15:01;;;;;;;14.20;12.75;;;45.00;25.70;;;;;;5034418;28;20100;-61
2022/03/22 12:17:28;;;;;;;11.80;10.70;;;45.90;25.70;;;;;;5033906;28;20485;-61
2022/03/22 12:19:58;;;;;;;9.77;8.98;;;46.90;25.60;;;;;;5033938;28;20256;-61
2022/03/22 12:22:25;;;;;;;16.80;15.10;;;47.70;25.10;;;;;;5033728;28;20144;-61
2022/03/22 12:24:50;;;;;;;13.52;12.32;;;45.90;22.90;;;;;;5034056;28;20022;-61
2022/03/22 12:27:16;;;;;;;11.65;10.52;;;45.20;24.00;;;;;;5032962;28;20037;-61
2022/03/22 12:29:43;;;;;;;12.70;11.50;;;45.80;24.40;;;;;;5034040;28;20493;-63
2022/03/22 12:32:17;;;;;;;12.57;11.48;;;46.40;24.20;;;;;;5033967;28;20481;-61
2022/03/22 12:34:48;;;;;;;14.90;13.45;;;46.80;24.30;;;;;;5033882;28;20062;-61
2022/03/22 12:37:15;;;;;;;14.88;13.35;;;47.50;24.00;;;;;;5016047;28;20030;-61
2022/03/22 12:39:42;;;;;;;;;;;47.70;23.80;;;;;;5034125;28;20500;-61
2022/03/22 12:42:09;;;;;;;14.45;13.07;;;47.70;23.30;;;;;;5033752;28;19905;-61
2022/03/22 12:44:35;;;;;;;16.45;14.95;;;45.80;22.80;;;;;;5015919;28;20397;-61
2022/03/22 12:47:04;;;;;;;15.90;14.30;;;44.40;22.70;;;;;;5015895;28;20053;-61
2022/03/22 12:49:30;;;;;;;16.52;14.90;;;43.30;23.10;;;;;;5033533;28;20843;-61
2022/03/22 12:51:56;;;;;;;19.08;17.17;;;43.60;22.80;;;;;;4999483;28;20017;-60
2022/03/22 12:54:23;;;;;;;15.40;13.80;;;41.70;22.80;;;;;;5015657;28;20246;-61
2022/03/22 12:56:49;;;;;;;14.63;13.13;;;40.30;23.60;;;;;;5033483;28;20045;-60
2022/03/22 12:59:19;;;;;;;15.25;13.85;;;40.80;23.90;;;;;;5015692;28;20025;-60
2022/03/22 13:01:53;;;;;;;15.82;13.75;;;41.60;24.10;;;;;;5033187;28;20392;-61
2022/03/22 13:04:26;;;;;;;14.30;12.90;;;41.80;24.20;;;;;;5033455;28;20057;-60